<?xml version="1.0" encoding="UTF-8" standalone="no" ?>
<gpx xmlns="http://www.topografix.com/GPX/1/1" xmlns:xsi="http://www.w3.org/2001/XMLSchema-instance" xsi:schemaLocation="http://www.topografix.com/GPX/1/1 http://www.topografix.com/GPX/1/1/gpx.xsd" version="1.1" creator="VisuGPX - https://www.visugpx.com">
  <metadata>
    <name>Hohwald-Mont Saint Odile</name>
    <desc><![CDATA[Super parcours et notre record personnel en distance.

De toute manière : 

\" on est trop fort\"]]></desc>
  </metadata>
  <trk>
    <name><![CDATA[Sequence 1]]></name>
    <trkseg>
      <trkpt lat="48.40465" lon="7.33193">
        <ele>597</ele>
        <time>2015-07-12T12:38:29Z</time>
      </trkpt>
      <trkpt lat="48.40472" lon="7.3321">
        <ele>601</ele>
        <time>2015-07-12T12:38:42Z</time>
      </trkpt>
      <trkpt lat="48.40478" lon="7.33222">
        <ele>602</ele>
        <time>2015-07-12T12:38:51Z</time>
      </trkpt>
      <trkpt lat="48.40478" lon="7.3322">
        <ele>603</ele>
        <time>2015-07-12T12:39:02Z</time>
      </trkpt>
      <trkpt lat="48.40482" lon="7.33232">
        <ele>603</ele>
        <time>2015-07-12T12:39:34Z</time>
      </trkpt>
      <trkpt lat="48.40483" lon="7.33232">
        <ele>603</ele>
        <time>2015-07-12T12:39:41Z</time>
      </trkpt>
      <trkpt lat="48.40501" lon="7.33258">
        <ele>605</ele>
        <time>2015-07-12T12:39:55Z</time>
      </trkpt>
      <trkpt lat="48.40501" lon="7.33263">
        <ele>602</ele>
        <time>2015-07-12T12:39:59Z</time>
      </trkpt>
      <trkpt lat="48.40506" lon="7.3327">
        <ele>604</ele>
        <time>2015-07-12T12:40:08Z</time>
      </trkpt>
      <trkpt lat="48.40528" lon="7.33289">
        <ele>603</ele>
        <time>2015-07-12T12:40:24Z</time>
      </trkpt>
      <trkpt lat="48.40543" lon="7.33298">
        <ele>604</ele>
        <time>2015-07-12T12:40:35Z</time>
      </trkpt>
      <trkpt lat="48.40559" lon="7.33323">
        <ele>605</ele>
        <time>2015-07-12T12:40:47Z</time>
      </trkpt>
      <trkpt lat="48.40565" lon="7.33329">
        <ele>607</ele>
        <time>2015-07-12T12:40:52Z</time>
      </trkpt>
      <trkpt lat="48.4057" lon="7.33339">
        <ele>612</ele>
        <time>2015-07-12T12:41:03Z</time>
      </trkpt>
      <trkpt lat="48.40578" lon="7.33352">
        <ele>614</ele>
        <time>2015-07-12T12:41:14Z</time>
      </trkpt>
      <trkpt lat="48.40589" lon="7.33368">
        <ele>623</ele>
        <time>2015-07-12T12:41:25Z</time>
      </trkpt>
      <trkpt lat="48.40601" lon="7.33381">
        <ele>628</ele>
        <time>2015-07-12T12:41:36Z</time>
      </trkpt>
      <trkpt lat="48.40608" lon="7.334">
        <ele>633</ele>
        <time>2015-07-12T12:41:50Z</time>
      </trkpt>
      <trkpt lat="48.4061" lon="7.33405">
        <ele>633</ele>
        <time>2015-07-12T12:42:02Z</time>
      </trkpt>
      <trkpt lat="48.40611" lon="7.33405">
        <ele>634</ele>
        <time>2015-07-12T12:42:09Z</time>
      </trkpt>
      <trkpt lat="48.4062" lon="7.33425">
        <ele>635</ele>
        <time>2015-07-12T12:42:20Z</time>
      </trkpt>
      <trkpt lat="48.40632" lon="7.33457">
        <ele>637</ele>
        <time>2015-07-12T12:42:31Z</time>
      </trkpt>
      <trkpt lat="48.40643" lon="7.33484">
        <ele>638</ele>
        <time>2015-07-12T12:42:42Z</time>
      </trkpt>
      <trkpt lat="48.40646" lon="7.33501">
        <ele>639</ele>
        <time>2015-07-12T12:42:53Z</time>
      </trkpt>
      <trkpt lat="48.40648" lon="7.33519">
        <ele>638</ele>
        <time>2015-07-12T12:43:07Z</time>
      </trkpt>
      <trkpt lat="48.40648" lon="7.33522">
        <ele>637</ele>
        <time>2015-07-12T12:43:23Z</time>
      </trkpt>
      <trkpt lat="48.40648" lon="7.33522">
        <ele>637</ele>
        <time>2015-07-12T12:43:27Z</time>
      </trkpt>
      <trkpt lat="48.40648" lon="7.33523">
        <ele>637</ele>
        <time>2015-07-12T12:43:37Z</time>
      </trkpt>
      <trkpt lat="48.40673" lon="7.33623">
        <ele>643</ele>
        <time>2015-07-12T12:44:07Z</time>
      </trkpt>
      <trkpt lat="48.40673" lon="7.33648">
        <ele>640</ele>
        <time>2015-07-12T12:44:20Z</time>
      </trkpt>
      <trkpt lat="48.40674" lon="7.3365">
        <ele>641</ele>
        <time>2015-07-12T12:44:21Z</time>
      </trkpt>
      <trkpt lat="48.4068" lon="7.3367">
        <ele>648</ele>
        <time>2015-07-12T12:44:34Z</time>
      </trkpt>
      <trkpt lat="48.40684" lon="7.33683">
        <ele>654</ele>
        <time>2015-07-12T12:44:51Z</time>
      </trkpt>
      <trkpt lat="48.40683" lon="7.33685">
        <ele>653</ele>
        <time>2015-07-12T12:44:54Z</time>
      </trkpt>
      <trkpt lat="48.40683" lon="7.33686">
        <ele>653</ele>
        <time>2015-07-12T12:45:05Z</time>
      </trkpt>
      <trkpt lat="48.40694" lon="7.33699">
        <ele>653</ele>
        <time>2015-07-12T12:45:24Z</time>
      </trkpt>
      <trkpt lat="48.40697" lon="7.33705">
        <ele>650</ele>
        <time>2015-07-12T12:45:27Z</time>
      </trkpt>
      <trkpt lat="48.40718" lon="7.3373">
        <ele>652</ele>
        <time>2015-07-12T12:45:43Z</time>
      </trkpt>
      <trkpt lat="48.4073" lon="7.33742">
        <ele>649</ele>
        <time>2015-07-12T12:45:55Z</time>
      </trkpt>
      <trkpt lat="48.40738" lon="7.33743">
        <ele>650</ele>
        <time>2015-07-12T12:46:05Z</time>
      </trkpt>
      <trkpt lat="48.40747" lon="7.33745">
        <ele>646</ele>
        <time>2015-07-12T12:46:11Z</time>
      </trkpt>
      <trkpt lat="48.40771" lon="7.33744">
        <ele>647</ele>
        <time>2015-07-12T12:46:27Z</time>
      </trkpt>
      <trkpt lat="48.40782" lon="7.33741">
        <ele>647</ele>
        <time>2015-07-12T12:46:36Z</time>
      </trkpt>
      <trkpt lat="48.40799" lon="7.33753">
        <ele>652</ele>
        <time>2015-07-12T12:46:50Z</time>
      </trkpt>
      <trkpt lat="48.40803" lon="7.33758">
        <ele>654</ele>
        <time>2015-07-12T12:46:55Z</time>
      </trkpt>
      <trkpt lat="48.40815" lon="7.33774">
        <ele>655</ele>
        <time>2015-07-12T12:47:10Z</time>
      </trkpt>
      <trkpt lat="48.40815" lon="7.33773">
        <ele>656</ele>
        <time>2015-07-12T12:47:17Z</time>
      </trkpt>
      <trkpt lat="48.4082" lon="7.33784">
        <ele>657</ele>
        <time>2015-07-12T12:47:37Z</time>
      </trkpt>
      <trkpt lat="48.40829" lon="7.33803">
        <ele>661</ele>
        <time>2015-07-12T12:47:43Z</time>
      </trkpt>
      <trkpt lat="48.40845" lon="7.33819">
        <ele>657</ele>
        <time>2015-07-12T12:48:00Z</time>
      </trkpt>
      <trkpt lat="48.40858" lon="7.33833">
        <ele>657</ele>
        <time>2015-07-12T12:48:07Z</time>
      </trkpt>
      <trkpt lat="48.40865" lon="7.33839">
        <ele>657</ele>
        <time>2015-07-12T12:48:14Z</time>
      </trkpt>
      <trkpt lat="48.4088" lon="7.33851">
        <ele>661</ele>
        <time>2015-07-12T12:48:25Z</time>
      </trkpt>
      <trkpt lat="48.40899" lon="7.33876">
        <ele>662</ele>
        <time>2015-07-12T12:48:41Z</time>
      </trkpt>
      <trkpt lat="48.40903" lon="7.33882">
        <ele>663</ele>
        <time>2015-07-12T12:48:45Z</time>
      </trkpt>
      <trkpt lat="48.40906" lon="7.33897">
        <ele>669</ele>
        <time>2015-07-12T12:48:56Z</time>
      </trkpt>
      <trkpt lat="48.40915" lon="7.33912">
        <ele>676</ele>
        <time>2015-07-12T12:49:07Z</time>
      </trkpt>
      <trkpt lat="48.40929" lon="7.33944">
        <ele>672</ele>
        <time>2015-07-12T12:49:27Z</time>
      </trkpt>
      <trkpt lat="48.40932" lon="7.33946">
        <ele>671</ele>
        <time>2015-07-12T12:49:31Z</time>
      </trkpt>
      <trkpt lat="48.40945" lon="7.33957">
        <ele>672</ele>
        <time>2015-07-12T12:49:45Z</time>
      </trkpt>
      <trkpt lat="48.40961" lon="7.33959">
        <ele>673</ele>
        <time>2015-07-12T12:49:54Z</time>
      </trkpt>
      <trkpt lat="48.40972" lon="7.33963">
        <ele>681</ele>
        <time>2015-07-12T12:50:07Z</time>
      </trkpt>
      <trkpt lat="48.40991" lon="7.33954">
        <ele>679</ele>
        <time>2015-07-12T12:50:22Z</time>
      </trkpt>
      <trkpt lat="48.40999" lon="7.3395">
        <ele>682</ele>
        <time>2015-07-12T12:50:30Z</time>
      </trkpt>
      <trkpt lat="48.41006" lon="7.33946">
        <ele>683</ele>
        <time>2015-07-12T12:50:38Z</time>
      </trkpt>
      <trkpt lat="48.41011" lon="7.33935">
        <ele>685</ele>
        <time>2015-07-12T12:50:50Z</time>
      </trkpt>
      <trkpt lat="48.41023" lon="7.33922">
        <ele>678</ele>
        <time>2015-07-12T12:51:01Z</time>
      </trkpt>
      <trkpt lat="48.41033" lon="7.33903">
        <ele>681</ele>
        <time>2015-07-12T12:51:12Z</time>
      </trkpt>
      <trkpt lat="48.41059" lon="7.33889">
        <ele>683</ele>
        <time>2015-07-12T12:51:32Z</time>
      </trkpt>
      <trkpt lat="48.41068" lon="7.33895">
        <ele>684</ele>
        <time>2015-07-12T12:51:38Z</time>
      </trkpt>
      <trkpt lat="48.41083" lon="7.33887">
        <ele>681</ele>
        <time>2015-07-12T12:51:53Z</time>
      </trkpt>
      <trkpt lat="48.41084" lon="7.33883">
        <ele>679</ele>
        <time>2015-07-12T12:51:56Z</time>
      </trkpt>
      <trkpt lat="48.41097" lon="7.33885">
        <ele>684</ele>
        <time>2015-07-12T12:52:09Z</time>
      </trkpt>
      <trkpt lat="48.41109" lon="7.33891">
        <ele>688</ele>
        <time>2015-07-12T12:52:18Z</time>
      </trkpt>
      <trkpt lat="48.41123" lon="7.33893">
        <ele>692</ele>
        <time>2015-07-12T12:52:30Z</time>
      </trkpt>
      <trkpt lat="48.41134" lon="7.33891">
        <ele>693</ele>
        <time>2015-07-12T12:52:40Z</time>
      </trkpt>
      <trkpt lat="48.41147" lon="7.3389">
        <ele>700</ele>
        <time>2015-07-12T12:52:52Z</time>
      </trkpt>
      <trkpt lat="48.4117" lon="7.33896">
        <ele>697</ele>
        <time>2015-07-12T12:53:11Z</time>
      </trkpt>
      <trkpt lat="48.41177" lon="7.33908">
        <ele>699</ele>
        <time>2015-07-12T12:53:23Z</time>
      </trkpt>
      <trkpt lat="48.41178" lon="7.33908">
        <ele>699</ele>
        <time>2015-07-12T12:53:25Z</time>
      </trkpt>
      <trkpt lat="48.41177" lon="7.33908">
        <ele>700</ele>
        <time>2015-07-12T12:53:36Z</time>
      </trkpt>
      <trkpt lat="48.41177" lon="7.33908">
        <ele>700</ele>
        <time>2015-07-12T12:53:56Z</time>
      </trkpt>
      <trkpt lat="48.41181" lon="7.3391">
        <ele>702</ele>
        <time>2015-07-12T12:54:01Z</time>
      </trkpt>
      <trkpt lat="48.41181" lon="7.33908">
        <ele>705</ele>
        <time>2015-07-12T12:54:13Z</time>
      </trkpt>
      <trkpt lat="48.41186" lon="7.33908">
        <ele>702</ele>
        <time>2015-07-12T12:54:26Z</time>
      </trkpt>
      <trkpt lat="48.41198" lon="7.33912">
        <ele>704</ele>
        <time>2015-07-12T12:54:38Z</time>
      </trkpt>
      <trkpt lat="48.41233" lon="7.3392">
        <ele>701</ele>
        <time>2015-07-12T12:55:00Z</time>
      </trkpt>
      <trkpt lat="48.41235" lon="7.33919">
        <ele>701</ele>
        <time>2015-07-12T12:55:02Z</time>
      </trkpt>
      <trkpt lat="48.4125" lon="7.3392">
        <ele>707</ele>
        <time>2015-07-12T12:55:16Z</time>
      </trkpt>
      <trkpt lat="48.41266" lon="7.33917">
        <ele>706</ele>
        <time>2015-07-12T12:55:28Z</time>
      </trkpt>
      <trkpt lat="48.41277" lon="7.33914">
        <ele>706</ele>
        <time>2015-07-12T12:55:40Z</time>
      </trkpt>
      <trkpt lat="48.41296" lon="7.33911">
        <ele>709</ele>
        <time>2015-07-12T12:55:54Z</time>
      </trkpt>
      <trkpt lat="48.41311" lon="7.33914">
        <ele>711</ele>
        <time>2015-07-12T12:56:04Z</time>
      </trkpt>
      <trkpt lat="48.41328" lon="7.33915">
        <ele>714</ele>
        <time>2015-07-12T12:56:17Z</time>
      </trkpt>
      <trkpt lat="48.41342" lon="7.33916">
        <ele>715</ele>
        <time>2015-07-12T12:56:26Z</time>
      </trkpt>
      <trkpt lat="48.41358" lon="7.33917">
        <ele>719</ele>
        <time>2015-07-12T12:56:37Z</time>
      </trkpt>
      <trkpt lat="48.4138" lon="7.3392">
        <ele>721</ele>
        <time>2015-07-12T12:56:52Z</time>
      </trkpt>
      <trkpt lat="48.41392" lon="7.33922">
        <ele>721</ele>
        <time>2015-07-12T12:57:00Z</time>
      </trkpt>
      <trkpt lat="48.41412" lon="7.3393">
        <ele>721</ele>
        <time>2015-07-12T12:57:12Z</time>
      </trkpt>
      <trkpt lat="48.41422" lon="7.33937">
        <ele>720</ele>
        <time>2015-07-12T12:57:23Z</time>
      </trkpt>
      <trkpt lat="48.41432" lon="7.33942">
        <ele>719</ele>
        <time>2015-07-12T12:57:35Z</time>
      </trkpt>
      <trkpt lat="48.4145" lon="7.33949">
        <ele>722</ele>
        <time>2015-07-12T12:57:48Z</time>
      </trkpt>
      <trkpt lat="48.41465" lon="7.33955">
        <ele>726</ele>
        <time>2015-07-12T12:58:02Z</time>
      </trkpt>
      <trkpt lat="48.41476" lon="7.33966">
        <ele>728</ele>
        <time>2015-07-12T12:58:14Z</time>
      </trkpt>
      <trkpt lat="48.41491" lon="7.33983">
        <ele>747</ele>
        <time>2015-07-12T12:58:29Z</time>
      </trkpt>
      <trkpt lat="48.41495" lon="7.33984">
        <ele>744</ele>
        <time>2015-07-12T12:58:31Z</time>
      </trkpt>
      <trkpt lat="48.41517" lon="7.33965">
        <ele>732</ele>
        <time>2015-07-12T12:58:47Z</time>
      </trkpt>
      <trkpt lat="48.41533" lon="7.33947">
        <ele>730</ele>
        <time>2015-07-12T12:59:01Z</time>
      </trkpt>
      <trkpt lat="48.41537" lon="7.33938">
        <ele>730</ele>
        <time>2015-07-12T12:59:06Z</time>
      </trkpt>
      <trkpt lat="48.41552" lon="7.33924">
        <ele>737</ele>
        <time>2015-07-12T12:59:20Z</time>
      </trkpt>
      <trkpt lat="48.41559" lon="7.33922">
        <ele>737</ele>
        <time>2015-07-12T12:59:28Z</time>
      </trkpt>
      <trkpt lat="48.41589" lon="7.3392">
        <ele>744</ele>
        <time>2015-07-12T12:59:49Z</time>
      </trkpt>
      <trkpt lat="48.41591" lon="7.33921">
        <ele>747</ele>
        <time>2015-07-12T12:59:50Z</time>
      </trkpt>
      <trkpt lat="48.41608" lon="7.3393">
        <ele>745</ele>
        <time>2015-07-12T13:00:01Z</time>
      </trkpt>
      <trkpt lat="48.41625" lon="7.33942">
        <ele>746</ele>
        <time>2015-07-12T13:00:12Z</time>
      </trkpt>
      <trkpt lat="48.41648" lon="7.3397">
        <ele>745</ele>
        <time>2015-07-12T13:00:26Z</time>
      </trkpt>
      <trkpt lat="48.41642" lon="7.34006">
        <ele>737</ele>
        <time>2015-07-12T13:00:35Z</time>
      </trkpt>
      <trkpt lat="48.41643" lon="7.34024">
        <ele>724</ele>
        <time>2015-07-12T13:00:55Z</time>
      </trkpt>
      <trkpt lat="48.41642" lon="7.3403">
        <ele>722</ele>
        <time>2015-07-12T13:01:01Z</time>
      </trkpt>
      <trkpt lat="48.41634" lon="7.34044">
        <ele>723</ele>
        <time>2015-07-12T13:01:10Z</time>
      </trkpt>
      <trkpt lat="48.41626" lon="7.34057">
        <ele>725</ele>
        <time>2015-07-12T13:01:18Z</time>
      </trkpt>
      <trkpt lat="48.41612" lon="7.34088">
        <ele>726</ele>
        <time>2015-07-12T13:01:37Z</time>
      </trkpt>
      <trkpt lat="48.4161" lon="7.3411">
        <ele>725</ele>
        <time>2015-07-12T13:01:48Z</time>
      </trkpt>
      <trkpt lat="48.41602" lon="7.34137">
        <ele>726</ele>
        <time>2015-07-12T13:02:02Z</time>
      </trkpt>
      <trkpt lat="48.41602" lon="7.34139">
        <ele>726</ele>
        <time>2015-07-12T13:02:04Z</time>
      </trkpt>
      <trkpt lat="48.41596" lon="7.34162">
        <ele>721</ele>
        <time>2015-07-12T13:02:15Z</time>
      </trkpt>
      <trkpt lat="48.41597" lon="7.34189">
        <ele>726</ele>
        <time>2015-07-12T13:02:27Z</time>
      </trkpt>
      <trkpt lat="48.41591" lon="7.34215">
        <ele>731</ele>
        <time>2015-07-12T13:02:40Z</time>
      </trkpt>
      <trkpt lat="48.41586" lon="7.34243">
        <ele>728</ele>
        <time>2015-07-12T13:02:51Z</time>
      </trkpt>
      <trkpt lat="48.41578" lon="7.34266">
        <ele>730</ele>
        <time>2015-07-12T13:03:04Z</time>
      </trkpt>
      <trkpt lat="48.4157" lon="7.34295">
        <ele>732</ele>
        <time>2015-07-12T13:03:17Z</time>
      </trkpt>
      <trkpt lat="48.41565" lon="7.34334">
        <ele>733</ele>
        <time>2015-07-12T13:03:34Z</time>
      </trkpt>
      <trkpt lat="48.41562" lon="7.34345">
        <ele>731</ele>
        <time>2015-07-12T13:03:40Z</time>
      </trkpt>
      <trkpt lat="48.41547" lon="7.34381">
        <ele>730</ele>
        <time>2015-07-12T13:04:01Z</time>
      </trkpt>
      <trkpt lat="48.41544" lon="7.34395">
        <ele>734</ele>
        <time>2015-07-12T13:04:09Z</time>
      </trkpt>
      <trkpt lat="48.41541" lon="7.34415">
        <ele>733</ele>
        <time>2015-07-12T13:04:20Z</time>
      </trkpt>
      <trkpt lat="48.41533" lon="7.34424">
        <ele>730</ele>
        <time>2015-07-12T13:04:27Z</time>
      </trkpt>
      <trkpt lat="48.41529" lon="7.34436">
        <ele>731</ele>
        <time>2015-07-12T13:04:35Z</time>
      </trkpt>
      <trkpt lat="48.41528" lon="7.34453">
        <ele>734</ele>
        <time>2015-07-12T13:04:46Z</time>
      </trkpt>
      <trkpt lat="48.41519" lon="7.34464">
        <ele>727</ele>
        <time>2015-07-12T13:04:57Z</time>
      </trkpt>
      <trkpt lat="48.41505" lon="7.34473">
        <ele>724</ele>
        <time>2015-07-12T13:05:08Z</time>
      </trkpt>
      <trkpt lat="48.41493" lon="7.34483">
        <ele>727</ele>
        <time>2015-07-12T13:05:19Z</time>
      </trkpt>
      <trkpt lat="48.41474" lon="7.34503">
        <ele>731</ele>
        <time>2015-07-12T13:05:37Z</time>
      </trkpt>
      <trkpt lat="48.41468" lon="7.34507">
        <ele>730</ele>
        <time>2015-07-12T13:05:41Z</time>
      </trkpt>
      <trkpt lat="48.41457" lon="7.34526">
        <ele>733</ele>
        <time>2015-07-12T13:05:52Z</time>
      </trkpt>
      <trkpt lat="48.41444" lon="7.34543">
        <ele>742</ele>
        <time>2015-07-12T13:06:09Z</time>
      </trkpt>
      <trkpt lat="48.41436" lon="7.34571">
        <ele>748</ele>
        <time>2015-07-12T13:06:23Z</time>
      </trkpt>
      <trkpt lat="48.41437" lon="7.34583">
        <ele>750</ele>
        <time>2015-07-12T13:06:29Z</time>
      </trkpt>
      <trkpt lat="48.41431" lon="7.3459">
        <ele>754</ele>
        <time>2015-07-12T13:06:37Z</time>
      </trkpt>
      <trkpt lat="48.41425" lon="7.34611">
        <ele>760</ele>
        <time>2015-07-12T13:06:53Z</time>
      </trkpt>
      <trkpt lat="48.41422" lon="7.34617">
        <ele>763</ele>
        <time>2015-07-12T13:06:58Z</time>
      </trkpt>
      <trkpt lat="48.41423" lon="7.34632">
        <ele>761</ele>
        <time>2015-07-12T13:07:09Z</time>
      </trkpt>
      <trkpt lat="48.41424" lon="7.34653">
        <ele>758</ele>
        <time>2015-07-12T13:07:20Z</time>
      </trkpt>
      <trkpt lat="48.41422" lon="7.3467">
        <ele>763</ele>
        <time>2015-07-12T13:07:31Z</time>
      </trkpt>
      <trkpt lat="48.41424" lon="7.34701">
        <ele>768</ele>
        <time>2015-07-12T13:07:47Z</time>
      </trkpt>
      <trkpt lat="48.41428" lon="7.34716">
        <ele>766</ele>
        <time>2015-07-12T13:07:54Z</time>
      </trkpt>
      <trkpt lat="48.41421" lon="7.34733">
        <ele>768</ele>
        <time>2015-07-12T13:08:04Z</time>
      </trkpt>
      <trkpt lat="48.41424" lon="7.34756">
        <ele>768</ele>
        <time>2015-07-12T13:08:15Z</time>
      </trkpt>
      <trkpt lat="48.41421" lon="7.34782">
        <ele>773</ele>
        <time>2015-07-12T13:08:36Z</time>
      </trkpt>
      <trkpt lat="48.41421" lon="7.34783">
        <ele>772</ele>
        <time>2015-07-12T13:08:41Z</time>
      </trkpt>
      <trkpt lat="48.41416" lon="7.34815">
        <ele>775</ele>
        <time>2015-07-12T13:08:53Z</time>
      </trkpt>
      <trkpt lat="48.41412" lon="7.34852">
        <ele>779</ele>
        <time>2015-07-12T13:09:09Z</time>
      </trkpt>
      <trkpt lat="48.41413" lon="7.34857">
        <ele>781</ele>
        <time>2015-07-12T13:09:16Z</time>
      </trkpt>
      <trkpt lat="48.4141" lon="7.34855">
        <ele>779</ele>
        <time>2015-07-12T13:09:25Z</time>
      </trkpt>
      <trkpt lat="48.41411" lon="7.34852">
        <ele>777</ele>
        <time>2015-07-12T13:09:36Z</time>
      </trkpt>
      <trkpt lat="48.41419" lon="7.34851">
        <ele>779</ele>
        <time>2015-07-12T13:09:43Z</time>
      </trkpt>
      <trkpt lat="48.4143" lon="7.34855">
        <ele>778</ele>
        <time>2015-07-12T13:09:54Z</time>
      </trkpt>
      <trkpt lat="48.41431" lon="7.34859">
        <ele>783</ele>
        <time>2015-07-12T13:10:07Z</time>
      </trkpt>
      <trkpt lat="48.41445" lon="7.3484">
        <ele>785</ele>
        <time>2015-07-12T13:10:29Z</time>
      </trkpt>
      <trkpt lat="48.4145" lon="7.34827">
        <ele>785</ele>
        <time>2015-07-12T13:10:37Z</time>
      </trkpt>
      <trkpt lat="48.41457" lon="7.34812">
        <ele>783</ele>
        <time>2015-07-12T13:10:44Z</time>
      </trkpt>
      <trkpt lat="48.41467" lon="7.3479">
        <ele>783</ele>
        <time>2015-07-12T13:10:57Z</time>
      </trkpt>
      <trkpt lat="48.41481" lon="7.3478">
        <ele>787</ele>
        <time>2015-07-12T13:11:12Z</time>
      </trkpt>
      <trkpt lat="48.41496" lon="7.3479">
        <ele>792</ele>
        <time>2015-07-12T13:11:28Z</time>
      </trkpt>
      <trkpt lat="48.41495" lon="7.34792">
        <ele>792</ele>
        <time>2015-07-12T13:11:29Z</time>
      </trkpt>
      <trkpt lat="48.4148" lon="7.34809">
        <ele>787</ele>
        <time>2015-07-12T13:11:47Z</time>
      </trkpt>
      <trkpt lat="48.41484" lon="7.34814">
        <ele>785</ele>
        <time>2015-07-12T13:11:51Z</time>
      </trkpt>
      <trkpt lat="48.41495" lon="7.34843">
        <ele>783</ele>
        <time>2015-07-12T13:12:09Z</time>
      </trkpt>
      <trkpt lat="48.41499" lon="7.34858">
        <ele>786</ele>
        <time>2015-07-12T13:12:19Z</time>
      </trkpt>
      <trkpt lat="48.41499" lon="7.34874">
        <ele>783</ele>
        <time>2015-07-12T13:12:29Z</time>
      </trkpt>
      <trkpt lat="48.41498" lon="7.34922">
        <ele>785</ele>
        <time>2015-07-12T13:12:50Z</time>
      </trkpt>
      <trkpt lat="48.41498" lon="7.34923">
        <ele>785</ele>
        <time>2015-07-12T13:12:51Z</time>
      </trkpt>
      <trkpt lat="48.41503" lon="7.34915">
        <ele>788</ele>
        <time>2015-07-12T13:13:04Z</time>
      </trkpt>
      <trkpt lat="48.41515" lon="7.34906">
        <ele>790</ele>
        <time>2015-07-12T13:13:20Z</time>
      </trkpt>
      <trkpt lat="48.41524" lon="7.34905">
        <ele>790</ele>
        <time>2015-07-12T13:13:26Z</time>
      </trkpt>
      <trkpt lat="48.4153" lon="7.34899">
        <ele>791</ele>
        <time>2015-07-12T13:13:37Z</time>
      </trkpt>
      <trkpt lat="48.41553" lon="7.34878">
        <ele>794</ele>
        <time>2015-07-12T13:13:52Z</time>
      </trkpt>
      <trkpt lat="48.41566" lon="7.34869">
        <ele>792</ele>
        <time>2015-07-12T13:14:03Z</time>
      </trkpt>
      <trkpt lat="48.41576" lon="7.34867">
        <ele>792</ele>
        <time>2015-07-12T13:14:10Z</time>
      </trkpt>
      <trkpt lat="48.41589" lon="7.34855">
        <ele>791</ele>
        <time>2015-07-12T13:14:21Z</time>
      </trkpt>
      <trkpt lat="48.41604" lon="7.34847">
        <ele>797</ele>
        <time>2015-07-12T13:14:39Z</time>
      </trkpt>
      <trkpt lat="48.41605" lon="7.3485">
        <ele>795</ele>
        <time>2015-07-12T13:14:57Z</time>
      </trkpt>
      <trkpt lat="48.41606" lon="7.34851">
        <ele>795</ele>
        <time>2015-07-12T13:14:58Z</time>
      </trkpt>
      <trkpt lat="48.41601" lon="7.34852">
        <ele>798</ele>
        <time>2015-07-12T13:15:12Z</time>
      </trkpt>
      <trkpt lat="48.41593" lon="7.34865">
        <ele>802</ele>
        <time>2015-07-12T13:15:26Z</time>
      </trkpt>
      <trkpt lat="48.41574" lon="7.34889">
        <ele>803</ele>
        <time>2015-07-12T13:15:49Z</time>
      </trkpt>
      <trkpt lat="48.41572" lon="7.34889">
        <ele>803</ele>
        <time>2015-07-12T13:15:51Z</time>
      </trkpt>
      <trkpt lat="48.41556" lon="7.34904">
        <ele>802</ele>
        <time>2015-07-12T13:16:04Z</time>
      </trkpt>
      <trkpt lat="48.4153" lon="7.34918">
        <ele>801</ele>
        <time>2015-07-12T13:16:21Z</time>
      </trkpt>
      <trkpt lat="48.41505" lon="7.34923">
        <ele>800</ele>
        <time>2015-07-12T13:16:36Z</time>
      </trkpt>
      <trkpt lat="48.41503" lon="7.34924">
        <ele>800</ele>
        <time>2015-07-12T13:16:37Z</time>
      </trkpt>
      <trkpt lat="48.41487" lon="7.34932">
        <ele>792</ele>
        <time>2015-07-12T13:16:53Z</time>
      </trkpt>
      <trkpt lat="48.41487" lon="7.34932">
        <ele>784</ele>
        <time>2015-07-12T13:17:06Z</time>
      </trkpt>
      <trkpt lat="48.41489" lon="7.34938">
        <ele>788</ele>
        <time>2015-07-12T13:17:13Z</time>
      </trkpt>
      <trkpt lat="48.41502" lon="7.34944">
        <ele>786</ele>
        <time>2015-07-12T13:17:24Z</time>
      </trkpt>
      <trkpt lat="48.41521" lon="7.34974">
        <ele>785</ele>
        <time>2015-07-12T13:17:43Z</time>
      </trkpt>
      <trkpt lat="48.41526" lon="7.34983">
        <ele>784</ele>
        <time>2015-07-12T13:17:50Z</time>
      </trkpt>
      <trkpt lat="48.41539" lon="7.35008">
        <ele>786</ele>
        <time>2015-07-12T13:18:13Z</time>
      </trkpt>
      <trkpt lat="48.41539" lon="7.3501">
        <ele>788</ele>
        <time>2015-07-12T13:18:16Z</time>
      </trkpt>
      <trkpt lat="48.41539" lon="7.35011">
        <ele>788</ele>
        <time>2015-07-12T13:18:27Z</time>
      </trkpt>
      <trkpt lat="48.4155" lon="7.35032">
        <ele>778</ele>
        <time>2015-07-12T13:18:41Z</time>
      </trkpt>
      <trkpt lat="48.41552" lon="7.35051">
        <ele>775</ele>
        <time>2015-07-12T13:19:00Z</time>
      </trkpt>
      <trkpt lat="48.41552" lon="7.35052">
        <ele>775</ele>
        <time>2015-07-12T13:19:07Z</time>
      </trkpt>
      <trkpt lat="48.4156" lon="7.35057">
        <ele>775</ele>
        <time>2015-07-12T13:19:14Z</time>
      </trkpt>
      <trkpt lat="48.41581" lon="7.35078">
        <ele>774</ele>
        <time>2015-07-12T13:19:25Z</time>
      </trkpt>
      <trkpt lat="48.41607" lon="7.35103">
        <ele>777</ele>
        <time>2015-07-12T13:19:43Z</time>
      </trkpt>
      <trkpt lat="48.41614" lon="7.3511">
        <ele>780</ele>
        <time>2015-07-12T13:19:49Z</time>
      </trkpt>
      <trkpt lat="48.41627" lon="7.35125">
        <ele>779</ele>
        <time>2015-07-12T13:20:03Z</time>
      </trkpt>
      <trkpt lat="48.41644" lon="7.35133">
        <ele>784</ele>
        <time>2015-07-12T13:20:15Z</time>
      </trkpt>
      <trkpt lat="48.41663" lon="7.35147">
        <ele>788</ele>
        <time>2015-07-12T13:20:32Z</time>
      </trkpt>
      <trkpt lat="48.41676" lon="7.35157">
        <ele>798</ele>
        <time>2015-07-12T13:20:42Z</time>
      </trkpt>
      <trkpt lat="48.41682" lon="7.35169">
        <ele>805</ele>
        <time>2015-07-12T13:20:50Z</time>
      </trkpt>
      <trkpt lat="48.41695" lon="7.3518">
        <ele>809</ele>
        <time>2015-07-12T13:21:04Z</time>
      </trkpt>
      <trkpt lat="48.41705" lon="7.35203">
        <ele>810</ele>
        <time>2015-07-12T13:21:16Z</time>
      </trkpt>
      <trkpt lat="48.41718" lon="7.35231">
        <ele>800</ele>
        <time>2015-07-12T13:21:27Z</time>
      </trkpt>
      <trkpt lat="48.41733" lon="7.35247">
        <ele>797</ele>
        <time>2015-07-12T13:21:37Z</time>
      </trkpt>
      <trkpt lat="48.41756" lon="7.35269">
        <ele>793</ele>
        <time>2015-07-12T13:21:58Z</time>
      </trkpt>
      <trkpt lat="48.41758" lon="7.35271">
        <ele>791</ele>
        <time>2015-07-12T13:22:01Z</time>
      </trkpt>
      <trkpt lat="48.41772" lon="7.35294">
        <ele>792</ele>
        <time>2015-07-12T13:22:15Z</time>
      </trkpt>
      <trkpt lat="48.41771" lon="7.35309">
        <ele>798</ele>
        <time>2015-07-12T13:22:24Z</time>
      </trkpt>
      <trkpt lat="48.41773" lon="7.35329">
        <ele>799</ele>
        <time>2015-07-12T13:22:35Z</time>
      </trkpt>
      <trkpt lat="48.41777" lon="7.35347">
        <ele>791</ele>
        <time>2015-07-12T13:22:46Z</time>
      </trkpt>
      <trkpt lat="48.41789" lon="7.35369">
        <ele>792</ele>
        <time>2015-07-12T13:22:57Z</time>
      </trkpt>
      <trkpt lat="48.41793" lon="7.35392">
        <ele>791</ele>
        <time>2015-07-12T13:23:09Z</time>
      </trkpt>
      <trkpt lat="48.41796" lon="7.35422">
        <ele>785</ele>
        <time>2015-07-12T13:23:23Z</time>
      </trkpt>
      <trkpt lat="48.41805" lon="7.35448">
        <ele>783</ele>
        <time>2015-07-12T13:23:34Z</time>
      </trkpt>
      <trkpt lat="48.41812" lon="7.35462">
        <ele>786</ele>
        <time>2015-07-12T13:23:41Z</time>
      </trkpt>
      <trkpt lat="48.41827" lon="7.35491">
        <ele>787</ele>
        <time>2015-07-12T13:23:56Z</time>
      </trkpt>
      <trkpt lat="48.41833" lon="7.35505">
        <ele>780</ele>
        <time>2015-07-12T13:24:03Z</time>
      </trkpt>
      <trkpt lat="48.41845" lon="7.35544">
        <ele>773</ele>
        <time>2015-07-12T13:24:21Z</time>
      </trkpt>
      <trkpt lat="48.4185" lon="7.35547">
        <ele>772</ele>
        <time>2015-07-12T13:24:25Z</time>
      </trkpt>
      <trkpt lat="48.41862" lon="7.35564">
        <ele>774</ele>
        <time>2015-07-12T13:24:37Z</time>
      </trkpt>
      <trkpt lat="48.41873" lon="7.35575">
        <ele>778</ele>
        <time>2015-07-12T13:24:47Z</time>
      </trkpt>
      <trkpt lat="48.41883" lon="7.35591">
        <ele>784</ele>
        <time>2015-07-12T13:25:00Z</time>
      </trkpt>
      <trkpt lat="48.41896" lon="7.35602">
        <ele>782</ele>
        <time>2015-07-12T13:25:12Z</time>
      </trkpt>
      <trkpt lat="48.4191" lon="7.35616">
        <ele>781</ele>
        <time>2015-07-12T13:25:24Z</time>
      </trkpt>
      <trkpt lat="48.41927" lon="7.3562">
        <ele>780</ele>
        <time>2015-07-12T13:25:35Z</time>
      </trkpt>
      <trkpt lat="48.41955" lon="7.35624">
        <ele>781</ele>
        <time>2015-07-12T13:25:55Z</time>
      </trkpt>
      <trkpt lat="48.41958" lon="7.35624">
        <ele>781</ele>
        <time>2015-07-12T13:25:58Z</time>
      </trkpt>
      <trkpt lat="48.41973" lon="7.35611">
        <ele>774</ele>
        <time>2015-07-12T13:26:13Z</time>
      </trkpt>
      <trkpt lat="48.4198" lon="7.35607">
        <ele>775</ele>
        <time>2015-07-12T13:26:20Z</time>
      </trkpt>
      <trkpt lat="48.41988" lon="7.35606">
        <ele>775</ele>
        <time>2015-07-12T13:26:31Z</time>
      </trkpt>
      <trkpt lat="48.4199" lon="7.35605">
        <ele>775</ele>
        <time>2015-07-12T13:26:44Z</time>
      </trkpt>
      <trkpt lat="48.41994" lon="7.356">
        <ele>775</ele>
        <time>2015-07-12T13:26:53Z</time>
      </trkpt>
      <trkpt lat="48.42013" lon="7.3559">
        <ele>777</ele>
        <time>2015-07-12T13:27:04Z</time>
      </trkpt>
      <trkpt lat="48.42053" lon="7.35581">
        <ele>772</ele>
        <time>2015-07-12T13:27:25Z</time>
      </trkpt>
      <trkpt lat="48.42054" lon="7.35588">
        <ele>771</ele>
        <time>2015-07-12T13:27:28Z</time>
      </trkpt>
      <trkpt lat="48.42048" lon="7.356">
        <ele>765</ele>
        <time>2015-07-12T13:27:37Z</time>
      </trkpt>
      <trkpt lat="48.42058" lon="7.35635">
        <ele>764</ele>
        <time>2015-07-12T13:27:55Z</time>
      </trkpt>
      <trkpt lat="48.42059" lon="7.35643">
        <ele>762</ele>
        <time>2015-07-12T13:27:59Z</time>
      </trkpt>
      <trkpt lat="48.42062" lon="7.35655">
        <ele>759</ele>
        <time>2015-07-12T13:28:20Z</time>
      </trkpt>
      <trkpt lat="48.42062" lon="7.35655">
        <ele>759</ele>
        <time>2015-07-12T13:28:21Z</time>
      </trkpt>
      <trkpt lat="48.42062" lon="7.35656">
        <ele>759</ele>
        <time>2015-07-12T13:28:32Z</time>
      </trkpt>
      <trkpt lat="48.42062" lon="7.35656">
        <ele>759</ele>
        <time>2015-07-12T13:28:53Z</time>
      </trkpt>
      <trkpt lat="48.42062" lon="7.35656">
        <ele>759</ele>
        <time>2015-07-12T13:29:01Z</time>
      </trkpt>
      <trkpt lat="48.42064" lon="7.35662">
        <ele>760</ele>
        <time>2015-07-12T13:29:06Z</time>
      </trkpt>
      <trkpt lat="48.42074" lon="7.35706">
        <ele>766</ele>
        <time>2015-07-12T13:29:18Z</time>
      </trkpt>
      <trkpt lat="48.42074" lon="7.35734">
        <ele>751</ele>
        <time>2015-07-12T13:29:28Z</time>
      </trkpt>
      <trkpt lat="48.42072" lon="7.35768">
        <ele>748</ele>
        <time>2015-07-12T13:29:38Z</time>
      </trkpt>
      <trkpt lat="48.42067" lon="7.35795">
        <ele>752</ele>
        <time>2015-07-12T13:29:49Z</time>
      </trkpt>
      <trkpt lat="48.42066" lon="7.3582">
        <ele>750</ele>
        <time>2015-07-12T13:30:03Z</time>
      </trkpt>
      <trkpt lat="48.42053" lon="7.35837">
        <ele>751</ele>
        <time>2015-07-12T13:30:14Z</time>
      </trkpt>
      <trkpt lat="48.42046" lon="7.35848">
        <ele>750</ele>
        <time>2015-07-12T13:30:24Z</time>
      </trkpt>
      <trkpt lat="48.42037" lon="7.35863">
        <ele>746</ele>
        <time>2015-07-12T13:30:34Z</time>
      </trkpt>
      <trkpt lat="48.42024" lon="7.35881">
        <ele>742</ele>
        <time>2015-07-12T13:30:46Z</time>
      </trkpt>
      <trkpt lat="48.42002" lon="7.35905">
        <ele>750</ele>
        <time>2015-07-12T13:31:07Z</time>
      </trkpt>
      <trkpt lat="48.41998" lon="7.35907">
        <ele>751</ele>
        <time>2015-07-12T13:31:09Z</time>
      </trkpt>
      <trkpt lat="48.41979" lon="7.35925">
        <ele>743</ele>
        <time>2015-07-12T13:31:20Z</time>
      </trkpt>
      <trkpt lat="48.41951" lon="7.35955">
        <ele>738</ele>
        <time>2015-07-12T13:31:42Z</time>
      </trkpt>
      <trkpt lat="48.41948" lon="7.35959">
        <ele>738</ele>
        <time>2015-07-12T13:31:45Z</time>
      </trkpt>
      <trkpt lat="48.41927" lon="7.35984">
        <ele>739</ele>
        <time>2015-07-12T13:32:05Z</time>
      </trkpt>
      <trkpt lat="48.41926" lon="7.36004">
        <ele>738</ele>
        <time>2015-07-12T13:32:15Z</time>
      </trkpt>
      <trkpt lat="48.41929" lon="7.3602">
        <ele>737</ele>
        <time>2015-07-12T13:32:24Z</time>
      </trkpt>
      <trkpt lat="48.4192" lon="7.36043">
        <ele>739</ele>
        <time>2015-07-12T13:32:36Z</time>
      </trkpt>
      <trkpt lat="48.41921" lon="7.36069">
        <ele>737</ele>
        <time>2015-07-12T13:32:48Z</time>
      </trkpt>
      <trkpt lat="48.41924" lon="7.36095">
        <ele>734</ele>
        <time>2015-07-12T13:33:02Z</time>
      </trkpt>
      <trkpt lat="48.41938" lon="7.36132">
        <ele>731</ele>
        <time>2015-07-12T13:33:27Z</time>
      </trkpt>
      <trkpt lat="48.4194" lon="7.36136">
        <ele>732</ele>
        <time>2015-07-12T13:33:29Z</time>
      </trkpt>
      <trkpt lat="48.41949" lon="7.36156">
        <ele>735</ele>
        <time>2015-07-12T13:33:42Z</time>
      </trkpt>
      <trkpt lat="48.41965" lon="7.36184">
        <ele>736</ele>
        <time>2015-07-12T13:33:56Z</time>
      </trkpt>
      <trkpt lat="48.41976" lon="7.36208">
        <ele>731</ele>
        <time>2015-07-12T13:34:10Z</time>
      </trkpt>
      <trkpt lat="48.41984" lon="7.36219">
        <ele>730</ele>
        <time>2015-07-12T13:34:17Z</time>
      </trkpt>
      <trkpt lat="48.41995" lon="7.36235">
        <ele>730</ele>
        <time>2015-07-12T13:34:29Z</time>
      </trkpt>
      <trkpt lat="48.42004" lon="7.36254">
        <ele>729</ele>
        <time>2015-07-12T13:34:41Z</time>
      </trkpt>
      <trkpt lat="48.4203" lon="7.36265">
        <ele>733</ele>
        <time>2015-07-12T13:35:00Z</time>
      </trkpt>
      <trkpt lat="48.42041" lon="7.36267">
        <ele>737</ele>
        <time>2015-07-12T13:35:13Z</time>
      </trkpt>
      <trkpt lat="48.42045" lon="7.3627">
        <ele>734</ele>
        <time>2015-07-12T13:35:16Z</time>
      </trkpt>
      <trkpt lat="48.42067" lon="7.36275">
        <ele>732</ele>
        <time>2015-07-12T13:35:30Z</time>
      </trkpt>
      <trkpt lat="48.42077" lon="7.36276">
        <ele>735</ele>
        <time>2015-07-12T13:35:37Z</time>
      </trkpt>
      <trkpt lat="48.42094" lon="7.36283">
        <ele>736</ele>
        <time>2015-07-12T13:35:48Z</time>
      </trkpt>
      <trkpt lat="48.42112" lon="7.36286">
        <ele>747</ele>
        <time>2015-07-12T13:35:59Z</time>
      </trkpt>
      <trkpt lat="48.42133" lon="7.36303">
        <ele>756</ele>
        <time>2015-07-12T13:36:18Z</time>
      </trkpt>
      <trkpt lat="48.42137" lon="7.36304">
        <ele>756</ele>
        <time>2015-07-12T13:36:21Z</time>
      </trkpt>
      <trkpt lat="48.42145" lon="7.3631">
        <ele>756</ele>
        <time>2015-07-12T13:36:37Z</time>
      </trkpt>
      <trkpt lat="48.42149" lon="7.36318">
        <ele>756</ele>
        <time>2015-07-12T13:36:47Z</time>
      </trkpt>
      <trkpt lat="48.42154" lon="7.36342">
        <ele>756</ele>
        <time>2015-07-12T13:36:57Z</time>
      </trkpt>
      <trkpt lat="48.42162" lon="7.36368">
        <ele>756</ele>
        <time>2015-07-12T13:37:09Z</time>
      </trkpt>
      <trkpt lat="48.42171" lon="7.36386">
        <ele>755</ele>
        <time>2015-07-12T13:37:19Z</time>
      </trkpt>
      <trkpt lat="48.42186" lon="7.36416">
        <ele>757</ele>
        <time>2015-07-12T13:37:34Z</time>
      </trkpt>
      <trkpt lat="48.4219" lon="7.36428">
        <ele>756</ele>
        <time>2015-07-12T13:37:41Z</time>
      </trkpt>
      <trkpt lat="48.422" lon="7.36468">
        <ele>754</ele>
        <time>2015-07-12T13:38:02Z</time>
      </trkpt>
      <trkpt lat="48.42208" lon="7.36478">
        <ele>753</ele>
        <time>2015-07-12T13:38:09Z</time>
      </trkpt>
      <trkpt lat="48.42214" lon="7.36493">
        <ele>749</ele>
        <time>2015-07-12T13:38:16Z</time>
      </trkpt>
      <trkpt lat="48.42222" lon="7.36506">
        <ele>752</ele>
        <time>2015-07-12T13:38:25Z</time>
      </trkpt>
      <trkpt lat="48.42231" lon="7.36518">
        <ele>750</ele>
        <time>2015-07-12T13:38:36Z</time>
      </trkpt>
      <trkpt lat="48.42232" lon="7.3656">
        <ele>740</ele>
        <time>2015-07-12T13:38:55Z</time>
      </trkpt>
      <trkpt lat="48.42232" lon="7.36565">
        <ele>739</ele>
        <time>2015-07-12T13:38:58Z</time>
      </trkpt>
      <trkpt lat="48.42253" lon="7.36594">
        <ele>729</ele>
        <time>2015-07-12T13:39:15Z</time>
      </trkpt>
      <trkpt lat="48.42259" lon="7.36604">
        <ele>728</ele>
        <time>2015-07-12T13:39:20Z</time>
      </trkpt>
      <trkpt lat="48.4228" lon="7.36638">
        <ele>726</ele>
        <time>2015-07-12T13:39:41Z</time>
      </trkpt>
      <trkpt lat="48.42281" lon="7.36639">
        <ele>725</ele>
        <time>2015-07-12T13:39:42Z</time>
      </trkpt>
      <trkpt lat="48.4229" lon="7.36653">
        <ele>728</ele>
        <time>2015-07-12T13:39:53Z</time>
      </trkpt>
      <trkpt lat="48.42302" lon="7.3667">
        <ele>729</ele>
        <time>2015-07-12T13:40:04Z</time>
      </trkpt>
      <trkpt lat="48.42313" lon="7.36687">
        <ele>733</ele>
        <time>2015-07-12T13:40:15Z</time>
      </trkpt>
      <trkpt lat="48.42322" lon="7.36708">
        <ele>727</ele>
        <time>2015-07-12T13:40:26Z</time>
      </trkpt>
      <trkpt lat="48.42333" lon="7.36741">
        <ele>724</ele>
        <time>2015-07-12T13:40:42Z</time>
      </trkpt>
      <trkpt lat="48.42342" lon="7.36753">
        <ele>727</ele>
        <time>2015-07-12T13:40:49Z</time>
      </trkpt>
      <trkpt lat="48.42368" lon="7.36784">
        <ele>727</ele>
        <time>2015-07-12T13:41:09Z</time>
      </trkpt>
      <trkpt lat="48.42369" lon="7.36785">
        <ele>728</ele>
        <time>2015-07-12T13:41:10Z</time>
      </trkpt>
      <trkpt lat="48.42387" lon="7.36805">
        <ele>707</ele>
        <time>2015-07-12T13:41:25Z</time>
      </trkpt>
      <trkpt lat="48.42398" lon="7.36803">
        <ele>707</ele>
        <time>2015-07-12T13:41:33Z</time>
      </trkpt>
      <trkpt lat="48.42412" lon="7.36816">
        <ele>712</ele>
        <time>2015-07-12T13:41:52Z</time>
      </trkpt>
      <trkpt lat="48.42413" lon="7.36818">
        <ele>711</ele>
        <time>2015-07-12T13:41:57Z</time>
      </trkpt>
      <trkpt lat="48.42434" lon="7.3683">
        <ele>708</ele>
        <time>2015-07-12T13:42:11Z</time>
      </trkpt>
      <trkpt lat="48.42444" lon="7.36836">
        <ele>710</ele>
        <time>2015-07-12T13:42:18Z</time>
      </trkpt>
      <trkpt lat="48.4246" lon="7.36859">
        <ele>712</ele>
        <time>2015-07-12T13:42:30Z</time>
      </trkpt>
      <trkpt lat="48.42476" lon="7.36867">
        <ele>720</ele>
        <time>2015-07-12T13:42:40Z</time>
      </trkpt>
      <trkpt lat="48.425" lon="7.36912">
        <ele>726</ele>
        <time>2015-07-12T13:42:57Z</time>
      </trkpt>
      <trkpt lat="48.42508" lon="7.36941">
        <ele>723</ele>
        <time>2015-07-12T13:43:11Z</time>
      </trkpt>
      <trkpt lat="48.42511" lon="7.36948">
        <ele>724</ele>
        <time>2015-07-12T13:43:15Z</time>
      </trkpt>
      <trkpt lat="48.42528" lon="7.36976">
        <ele>721</ele>
        <time>2015-07-12T13:43:35Z</time>
      </trkpt>
      <trkpt lat="48.42543" lon="7.36994">
        <ele>702</ele>
        <time>2015-07-12T13:43:47Z</time>
      </trkpt>
      <trkpt lat="48.42547" lon="7.37009">
        <ele>699</ele>
        <time>2015-07-12T13:43:56Z</time>
      </trkpt>
      <trkpt lat="48.42556" lon="7.37036">
        <ele>698</ele>
        <time>2015-07-12T13:44:08Z</time>
      </trkpt>
      <trkpt lat="48.42563" lon="7.37051">
        <ele>698</ele>
        <time>2015-07-12T13:44:18Z</time>
      </trkpt>
      <trkpt lat="48.42572" lon="7.37073">
        <ele>697</ele>
        <time>2015-07-12T13:44:29Z</time>
      </trkpt>
      <trkpt lat="48.42585" lon="7.37095">
        <ele>694</ele>
        <time>2015-07-12T13:44:46Z</time>
      </trkpt>
      <trkpt lat="48.42587" lon="7.37094">
        <ele>696</ele>
        <time>2015-07-12T13:44:58Z</time>
      </trkpt>
      <trkpt lat="48.42589" lon="7.371">
        <ele>696</ele>
        <time>2015-07-12T13:45:08Z</time>
      </trkpt>
      <trkpt lat="48.42594" lon="7.37116">
        <ele>694</ele>
        <time>2015-07-12T13:45:16Z</time>
      </trkpt>
      <trkpt lat="48.42599" lon="7.37112">
        <ele>698</ele>
        <time>2015-07-12T13:45:23Z</time>
      </trkpt>
      <trkpt lat="48.42606" lon="7.37112">
        <ele>699</ele>
        <time>2015-07-12T13:45:34Z</time>
      </trkpt>
      <trkpt lat="48.426" lon="7.37142">
        <ele>698</ele>
        <time>2015-07-12T13:45:51Z</time>
      </trkpt>
      <trkpt lat="48.42592" lon="7.37174">
        <ele>698</ele>
        <time>2015-07-12T13:46:06Z</time>
      </trkpt>
      <trkpt lat="48.42589" lon="7.37174">
        <ele>698</ele>
        <time>2015-07-12T13:46:07Z</time>
      </trkpt>
      <trkpt lat="48.42581" lon="7.37179">
        <ele>696</ele>
        <time>2015-07-12T13:46:19Z</time>
      </trkpt>
      <trkpt lat="48.42576" lon="7.37176">
        <ele>686</ele>
        <time>2015-07-12T13:46:44Z</time>
      </trkpt>
      <trkpt lat="48.42576" lon="7.37176">
        <ele>686</ele>
        <time>2015-07-12T13:46:46Z</time>
      </trkpt>
      <trkpt lat="48.42576" lon="7.37176">
        <ele>686</ele>
        <time>2015-07-12T13:47:04Z</time>
      </trkpt>
      <trkpt lat="48.42574" lon="7.37194">
        <ele>683</ele>
        <time>2015-07-12T13:47:21Z</time>
      </trkpt>
      <trkpt lat="48.42578" lon="7.37224">
        <ele>686</ele>
        <time>2015-07-12T13:47:35Z</time>
      </trkpt>
      <trkpt lat="48.42581" lon="7.37236">
        <ele>690</ele>
        <time>2015-07-12T13:47:41Z</time>
      </trkpt>
      <trkpt lat="48.4258" lon="7.37261">
        <ele>694</ele>
        <time>2015-07-12T13:47:52Z</time>
      </trkpt>
      <trkpt lat="48.42571" lon="7.37294">
        <ele>694</ele>
        <time>2015-07-12T13:48:07Z</time>
      </trkpt>
      <trkpt lat="48.42567" lon="7.37313">
        <ele>692</ele>
        <time>2015-07-12T13:48:16Z</time>
      </trkpt>
      <trkpt lat="48.42562" lon="7.37338">
        <ele>694</ele>
        <time>2015-07-12T13:48:29Z</time>
      </trkpt>
      <trkpt lat="48.42551" lon="7.37358">
        <ele>701</ele>
        <time>2015-07-12T13:48:40Z</time>
      </trkpt>
      <trkpt lat="48.42533" lon="7.37402">
        <ele>702</ele>
        <time>2015-07-12T13:48:57Z</time>
      </trkpt>
      <trkpt lat="48.42522" lon="7.37425">
        <ele>701</ele>
        <time>2015-07-12T13:49:10Z</time>
      </trkpt>
      <trkpt lat="48.4251" lon="7.37436">
        <ele>699</ele>
        <time>2015-07-12T13:49:17Z</time>
      </trkpt>
      <trkpt lat="48.42486" lon="7.37457">
        <ele>695</ele>
        <time>2015-07-12T13:49:35Z</time>
      </trkpt>
      <trkpt lat="48.42482" lon="7.37464">
        <ele>699</ele>
        <time>2015-07-12T13:49:41Z</time>
      </trkpt>
      <trkpt lat="48.42472" lon="7.37469">
        <ele>701</ele>
        <time>2015-07-12T13:49:49Z</time>
      </trkpt>
      <trkpt lat="48.4245" lon="7.37492">
        <ele>699</ele>
        <time>2015-07-12T13:50:07Z</time>
      </trkpt>
      <trkpt lat="48.42445" lon="7.37495">
        <ele>702</ele>
        <time>2015-07-12T13:50:12Z</time>
      </trkpt>
      <trkpt lat="48.4241" lon="7.37493">
        <ele>704</ele>
        <time>2015-07-12T13:50:30Z</time>
      </trkpt>
      <trkpt lat="48.42397" lon="7.37498">
        <ele>703</ele>
        <time>2015-07-12T13:50:43Z</time>
      </trkpt>
      <trkpt lat="48.42386" lon="7.37501">
        <ele>705</ele>
        <time>2015-07-12T13:50:51Z</time>
      </trkpt>
      <trkpt lat="48.42367" lon="7.37509">
        <ele>705</ele>
        <time>2015-07-12T13:51:03Z</time>
      </trkpt>
      <trkpt lat="48.42352" lon="7.37516">
        <ele>707</ele>
        <time>2015-07-12T13:51:15Z</time>
      </trkpt>
      <trkpt lat="48.42347" lon="7.37514">
        <ele>713</ele>
        <time>2015-07-12T13:51:20Z</time>
      </trkpt>
      <trkpt lat="48.42341" lon="7.37522">
        <ele>711</ele>
        <time>2015-07-12T13:51:31Z</time>
      </trkpt>
      <trkpt lat="48.42317" lon="7.37534">
        <ele>710</ele>
        <time>2015-07-12T13:51:52Z</time>
      </trkpt>
      <trkpt lat="48.42313" lon="7.37534">
        <ele>707</ele>
        <time>2015-07-12T13:51:56Z</time>
      </trkpt>
      <trkpt lat="48.42305" lon="7.3754">
        <ele>695</ele>
        <time>2015-07-12T13:52:15Z</time>
      </trkpt>
      <trkpt lat="48.42303" lon="7.37544">
        <ele>692</ele>
        <time>2015-07-12T13:52:23Z</time>
      </trkpt>
      <trkpt lat="48.42297" lon="7.37547">
        <ele>692</ele>
        <time>2015-07-12T13:52:33Z</time>
      </trkpt>
      <trkpt lat="48.42293" lon="7.37548">
        <ele>692</ele>
        <time>2015-07-12T13:52:45Z</time>
      </trkpt>
      <trkpt lat="48.42266" lon="7.3756">
        <ele>693</ele>
        <time>2015-07-12T13:53:00Z</time>
      </trkpt>
      <trkpt lat="48.42254" lon="7.37575">
        <ele>689</ele>
        <time>2015-07-12T13:53:11Z</time>
      </trkpt>
      <trkpt lat="48.42242" lon="7.376">
        <ele>690</ele>
        <time>2015-07-12T13:53:32Z</time>
      </trkpt>
      <trkpt lat="48.4224" lon="7.37602">
        <ele>693</ele>
        <time>2015-07-12T13:53:34Z</time>
      </trkpt>
      <trkpt lat="48.42219" lon="7.37637">
        <ele>687</ele>
        <time>2015-07-12T13:53:56Z</time>
      </trkpt>
      <trkpt lat="48.42206" lon="7.37653">
        <ele>684</ele>
        <time>2015-07-12T13:54:06Z</time>
      </trkpt>
      <trkpt lat="48.42195" lon="7.37667">
        <ele>685</ele>
        <time>2015-07-12T13:54:14Z</time>
      </trkpt>
      <trkpt lat="48.42182" lon="7.37695">
        <ele>689</ele>
        <time>2015-07-12T13:54:29Z</time>
      </trkpt>
      <trkpt lat="48.42174" lon="7.37741">
        <ele>694</ele>
        <time>2015-07-12T13:54:52Z</time>
      </trkpt>
      <trkpt lat="48.42173" lon="7.37744">
        <ele>694</ele>
        <time>2015-07-12T13:54:54Z</time>
      </trkpt>
      <trkpt lat="48.42156" lon="7.3778">
        <ele>689</ele>
        <time>2015-07-12T13:55:13Z</time>
      </trkpt>
      <trkpt lat="48.4215" lon="7.37791">
        <ele>693</ele>
        <time>2015-07-12T13:55:19Z</time>
      </trkpt>
      <trkpt lat="48.42143" lon="7.3782">
        <ele>690</ele>
        <time>2015-07-12T13:55:32Z</time>
      </trkpt>
      <trkpt lat="48.42137" lon="7.3785">
        <ele>689</ele>
        <time>2015-07-12T13:55:46Z</time>
      </trkpt>
      <trkpt lat="48.4213" lon="7.3788">
        <ele>690</ele>
        <time>2015-07-12T13:56:00Z</time>
      </trkpt>
      <trkpt lat="48.42126" lon="7.379">
        <ele>690</ele>
        <time>2015-07-12T13:56:09Z</time>
      </trkpt>
      <trkpt lat="48.4212" lon="7.3793">
        <ele>690</ele>
        <time>2015-07-12T13:56:25Z</time>
      </trkpt>
      <trkpt lat="48.42111" lon="7.37962">
        <ele>691</ele>
        <time>2015-07-12T13:56:38Z</time>
      </trkpt>
      <trkpt lat="48.42108" lon="7.37979">
        <ele>689</ele>
        <time>2015-07-12T13:56:46Z</time>
      </trkpt>
      <trkpt lat="48.42102" lon="7.38002">
        <ele>689</ele>
        <time>2015-07-12T13:56:58Z</time>
      </trkpt>
      <trkpt lat="48.421" lon="7.38031">
        <ele>690</ele>
        <time>2015-07-12T13:57:10Z</time>
      </trkpt>
      <trkpt lat="48.42089" lon="7.38075">
        <ele>692</ele>
        <time>2015-07-12T13:57:27Z</time>
      </trkpt>
      <trkpt lat="48.42085" lon="7.38109">
        <ele>695</ele>
        <time>2015-07-12T13:57:43Z</time>
      </trkpt>
      <trkpt lat="48.42076" lon="7.38137">
        <ele>698</ele>
        <time>2015-07-12T13:57:58Z</time>
      </trkpt>
      <trkpt lat="48.42075" lon="7.38148">
        <ele>698</ele>
        <time>2015-07-12T13:58:03Z</time>
      </trkpt>
      <trkpt lat="48.42077" lon="7.38181">
        <ele>697</ele>
        <time>2015-07-12T13:58:16Z</time>
      </trkpt>
      <trkpt lat="48.42081" lon="7.38233">
        <ele>700</ele>
        <time>2015-07-12T13:58:37Z</time>
      </trkpt>
      <trkpt lat="48.42081" lon="7.38243">
        <ele>699</ele>
        <time>2015-07-12T13:58:41Z</time>
      </trkpt>
      <trkpt lat="48.42085" lon="7.38272">
        <ele>696</ele>
        <time>2015-07-12T13:58:55Z</time>
      </trkpt>
      <trkpt lat="48.42092" lon="7.38295">
        <ele>694</ele>
        <time>2015-07-12T13:59:07Z</time>
      </trkpt>
      <trkpt lat="48.421" lon="7.38331">
        <ele>692</ele>
        <time>2015-07-12T13:59:22Z</time>
      </trkpt>
      <trkpt lat="48.42108" lon="7.3837">
        <ele>691</ele>
        <time>2015-07-12T13:59:40Z</time>
      </trkpt>
      <trkpt lat="48.42111" lon="7.38379">
        <ele>689</ele>
        <time>2015-07-12T13:59:45Z</time>
      </trkpt>
      <trkpt lat="48.42115" lon="7.38394">
        <ele>690</ele>
        <time>2015-07-12T13:59:53Z</time>
      </trkpt>
      <trkpt lat="48.42121" lon="7.3842">
        <ele>697</ele>
        <time>2015-07-12T14:00:09Z</time>
      </trkpt>
      <trkpt lat="48.42124" lon="7.38445">
        <ele>697</ele>
        <time>2015-07-12T14:00:20Z</time>
      </trkpt>
      <trkpt lat="48.42122" lon="7.38485">
        <ele>702</ele>
        <time>2015-07-12T14:00:37Z</time>
      </trkpt>
      <trkpt lat="48.42123" lon="7.38493">
        <ele>703</ele>
        <time>2015-07-12T14:00:41Z</time>
      </trkpt>
      <trkpt lat="48.42126" lon="7.38537">
        <ele>705</ele>
        <time>2015-07-12T14:00:59Z</time>
      </trkpt>
      <trkpt lat="48.42127" lon="7.38547">
        <ele>705</ele>
        <time>2015-07-12T14:01:03Z</time>
      </trkpt>
      <trkpt lat="48.42133" lon="7.38592">
        <ele>711</ele>
        <time>2015-07-12T14:01:22Z</time>
      </trkpt>
      <trkpt lat="48.4213" lon="7.38602">
        <ele>714</ele>
        <time>2015-07-12T14:01:27Z</time>
      </trkpt>
      <trkpt lat="48.42125" lon="7.38631">
        <ele>708</ele>
        <time>2015-07-12T14:01:40Z</time>
      </trkpt>
      <trkpt lat="48.42121" lon="7.38649">
        <ele>711</ele>
        <time>2015-07-12T14:01:50Z</time>
      </trkpt>
      <trkpt lat="48.42115" lon="7.38675">
        <ele>713</ele>
        <time>2015-07-12T14:02:02Z</time>
      </trkpt>
      <trkpt lat="48.421" lon="7.38713">
        <ele>704</ele>
        <time>2015-07-12T14:02:21Z</time>
      </trkpt>
      <trkpt lat="48.42089" lon="7.38733">
        <ele>702</ele>
        <time>2015-07-12T14:02:32Z</time>
      </trkpt>
      <trkpt lat="48.42083" lon="7.38745">
        <ele>700</ele>
        <time>2015-07-12T14:02:38Z</time>
      </trkpt>
      <trkpt lat="48.42069" lon="7.38768">
        <ele>699</ele>
        <time>2015-07-12T14:02:52Z</time>
      </trkpt>
      <trkpt lat="48.42062" lon="7.38783">
        <ele>700</ele>
        <time>2015-07-12T14:03:03Z</time>
      </trkpt>
      <trkpt lat="48.42055" lon="7.38799">
        <ele>699</ele>
        <time>2015-07-12T14:03:12Z</time>
      </trkpt>
      <trkpt lat="48.42033" lon="7.38831">
        <ele>696</ele>
        <time>2015-07-12T14:03:28Z</time>
      </trkpt>
      <trkpt lat="48.42027" lon="7.38847">
        <ele>694</ele>
        <time>2015-07-12T14:03:36Z</time>
      </trkpt>
      <trkpt lat="48.4202" lon="7.38868">
        <ele>695</ele>
        <time>2015-07-12T14:03:47Z</time>
      </trkpt>
      <trkpt lat="48.42009" lon="7.38881">
        <ele>698</ele>
        <time>2015-07-12T14:03:58Z</time>
      </trkpt>
      <trkpt lat="48.42" lon="7.38898">
        <ele>703</ele>
        <time>2015-07-12T14:04:10Z</time>
      </trkpt>
      <trkpt lat="48.41994" lon="7.38921">
        <ele>701</ele>
        <time>2015-07-12T14:04:22Z</time>
      </trkpt>
      <trkpt lat="48.4198" lon="7.38966">
        <ele>700</ele>
        <time>2015-07-12T14:04:43Z</time>
      </trkpt>
      <trkpt lat="48.41981" lon="7.38998">
        <ele>700</ele>
        <time>2015-07-12T14:04:58Z</time>
      </trkpt>
      <trkpt lat="48.41982" lon="7.39002">
        <ele>703</ele>
        <time>2015-07-12T14:05:00Z</time>
      </trkpt>
      <trkpt lat="48.41983" lon="7.39024">
        <ele>704</ele>
        <time>2015-07-12T14:05:11Z</time>
      </trkpt>
      <trkpt lat="48.41985" lon="7.39059">
        <ele>703</ele>
        <time>2015-07-12T14:05:33Z</time>
      </trkpt>
      <trkpt lat="48.41986" lon="7.39059">
        <ele>703</ele>
        <time>2015-07-12T14:05:36Z</time>
      </trkpt>
      <trkpt lat="48.41995" lon="7.39083">
        <ele>709</ele>
        <time>2015-07-12T14:05:52Z</time>
      </trkpt>
      <trkpt lat="48.42003" lon="7.39093">
        <ele>708</ele>
        <time>2015-07-12T14:06:00Z</time>
      </trkpt>
      <trkpt lat="48.42031" lon="7.39106">
        <ele>713</ele>
        <time>2015-07-12T14:06:21Z</time>
      </trkpt>
      <trkpt lat="48.4204" lon="7.39111">
        <ele>714</ele>
        <time>2015-07-12T14:06:31Z</time>
      </trkpt>
      <trkpt lat="48.42042" lon="7.39112">
        <ele>716</ele>
        <time>2015-07-12T14:06:38Z</time>
      </trkpt>
      <trkpt lat="48.42056" lon="7.39116">
        <ele>713</ele>
        <time>2015-07-12T14:06:52Z</time>
      </trkpt>
      <trkpt lat="48.42074" lon="7.39119">
        <ele>708</ele>
        <time>2015-07-12T14:07:02Z</time>
      </trkpt>
      <trkpt lat="48.42089" lon="7.39126">
        <ele>709</ele>
        <time>2015-07-12T14:07:14Z</time>
      </trkpt>
      <trkpt lat="48.421" lon="7.39135">
        <ele>711</ele>
        <time>2015-07-12T14:07:26Z</time>
      </trkpt>
      <trkpt lat="48.42109" lon="7.39149">
        <ele>716</ele>
        <time>2015-07-12T14:07:36Z</time>
      </trkpt>
      <trkpt lat="48.4213" lon="7.39165">
        <ele>720</ele>
        <time>2015-07-12T14:07:54Z</time>
      </trkpt>
      <trkpt lat="48.42134" lon="7.39168">
        <ele>721</ele>
        <time>2015-07-12T14:08:01Z</time>
      </trkpt>
      <trkpt lat="48.42155" lon="7.39188">
        <ele>719</ele>
        <time>2015-07-12T14:08:13Z</time>
      </trkpt>
      <trkpt lat="48.4218" lon="7.3922">
        <ele>724</ele>
        <time>2015-07-12T14:08:28Z</time>
      </trkpt>
      <trkpt lat="48.42205" lon="7.39253">
        <ele>722</ele>
        <time>2015-07-12T14:08:46Z</time>
      </trkpt>
      <trkpt lat="48.4222" lon="7.39273">
        <ele>723</ele>
        <time>2015-07-12T14:08:58Z</time>
      </trkpt>
      <trkpt lat="48.42228" lon="7.39277">
        <ele>722</ele>
        <time>2015-07-12T14:09:05Z</time>
      </trkpt>
      <trkpt lat="48.42239" lon="7.39288">
        <ele>721</ele>
        <time>2015-07-12T14:09:15Z</time>
      </trkpt>
      <trkpt lat="48.42241" lon="7.39313">
        <ele>719</ele>
        <time>2015-07-12T14:09:26Z</time>
      </trkpt>
      <trkpt lat="48.42246" lon="7.39345">
        <ele>715</ele>
        <time>2015-07-12T14:09:42Z</time>
      </trkpt>
      <trkpt lat="48.42246" lon="7.39348">
        <ele>715</ele>
        <time>2015-07-12T14:09:53Z</time>
      </trkpt>
      <trkpt lat="48.42251" lon="7.3937">
        <ele>716</ele>
        <time>2015-07-12T14:10:05Z</time>
      </trkpt>
      <trkpt lat="48.42258" lon="7.3941">
        <ele>716</ele>
        <time>2015-07-12T14:10:17Z</time>
      </trkpt>
      <trkpt lat="48.42265" lon="7.39461">
        <ele>714</ele>
        <time>2015-07-12T14:10:32Z</time>
      </trkpt>
      <trkpt lat="48.4227" lon="7.39473">
        <ele>715</ele>
        <time>2015-07-12T14:10:38Z</time>
      </trkpt>
      <trkpt lat="48.42268" lon="7.39515">
        <ele>714</ele>
        <time>2015-07-12T14:10:54Z</time>
      </trkpt>
      <trkpt lat="48.42266" lon="7.39541">
        <ele>716</ele>
        <time>2015-07-12T14:11:06Z</time>
      </trkpt>
      <trkpt lat="48.42265" lon="7.39565">
        <ele>716</ele>
        <time>2015-07-12T14:11:17Z</time>
      </trkpt>
      <trkpt lat="48.4226" lon="7.39614">
        <ele>718</ele>
        <time>2015-07-12T14:11:35Z</time>
      </trkpt>
      <trkpt lat="48.42259" lon="7.39619">
        <ele>719</ele>
        <time>2015-07-12T14:11:38Z</time>
      </trkpt>
      <trkpt lat="48.42258" lon="7.39654">
        <ele>717</ele>
        <time>2015-07-12T14:11:54Z</time>
      </trkpt>
      <trkpt lat="48.42258" lon="7.39681">
        <ele>720</ele>
        <time>2015-07-12T14:12:09Z</time>
      </trkpt>
      <trkpt lat="48.42257" lon="7.39702">
        <ele>720</ele>
        <time>2015-07-12T14:12:20Z</time>
      </trkpt>
      <trkpt lat="48.42256" lon="7.39721">
        <ele>719</ele>
        <time>2015-07-12T14:12:31Z</time>
      </trkpt>
      <trkpt lat="48.42258" lon="7.39746">
        <ele>720</ele>
        <time>2015-07-12T14:12:44Z</time>
      </trkpt>
      <trkpt lat="48.42259" lon="7.3977">
        <ele>718</ele>
        <time>2015-07-12T14:12:55Z</time>
      </trkpt>
      <trkpt lat="48.42262" lon="7.39803">
        <ele>721</ele>
        <time>2015-07-12T14:13:07Z</time>
      </trkpt>
      <trkpt lat="48.42263" lon="7.3983">
        <ele>716</ele>
        <time>2015-07-12T14:13:21Z</time>
      </trkpt>
      <trkpt lat="48.42262" lon="7.39848">
        <ele>720</ele>
        <time>2015-07-12T14:13:29Z</time>
      </trkpt>
      <trkpt lat="48.42269" lon="7.39876">
        <ele>720</ele>
        <time>2015-07-12T14:13:42Z</time>
      </trkpt>
      <trkpt lat="48.42279" lon="7.39921">
        <ele>719</ele>
        <time>2015-07-12T14:14:02Z</time>
      </trkpt>
      <trkpt lat="48.42277" lon="7.39937">
        <ele>716</ele>
        <time>2015-07-12T14:14:11Z</time>
      </trkpt>
      <trkpt lat="48.42281" lon="7.39947">
        <ele>717</ele>
        <time>2015-07-12T14:14:18Z</time>
      </trkpt>
      <trkpt lat="48.42288" lon="7.39963">
        <ele>720</ele>
        <time>2015-07-12T14:14:29Z</time>
      </trkpt>
      <trkpt lat="48.42306" lon="7.3999">
        <ele>727</ele>
        <time>2015-07-12T14:14:49Z</time>
      </trkpt>
      <trkpt lat="48.42308" lon="7.39997">
        <ele>724</ele>
        <time>2015-07-12T14:14:53Z</time>
      </trkpt>
      <trkpt lat="48.4231" lon="7.40022">
        <ele>724</ele>
        <time>2015-07-12T14:15:05Z</time>
      </trkpt>
      <trkpt lat="48.42316" lon="7.40034">
        <ele>725</ele>
        <time>2015-07-12T14:15:17Z</time>
      </trkpt>
      <trkpt lat="48.42339" lon="7.40065">
        <ele>729</ele>
        <time>2015-07-12T14:15:40Z</time>
      </trkpt>
      <trkpt lat="48.4234" lon="7.40067">
        <ele>728</ele>
        <time>2015-07-12T14:15:41Z</time>
      </trkpt>
      <trkpt lat="48.42352" lon="7.40084">
        <ele>734</ele>
        <time>2015-07-12T14:16:01Z</time>
      </trkpt>
      <trkpt lat="48.42361" lon="7.40087">
        <ele>739</ele>
        <time>2015-07-12T14:16:11Z</time>
      </trkpt>
      <trkpt lat="48.4237" lon="7.40084">
        <ele>740</ele>
        <time>2015-07-12T14:16:18Z</time>
      </trkpt>
      <trkpt lat="48.42395" lon="7.40077">
        <ele>744</ele>
        <time>2015-07-12T14:16:40Z</time>
      </trkpt>
      <trkpt lat="48.42396" lon="7.40077">
        <ele>744</ele>
        <time>2015-07-12T14:16:42Z</time>
      </trkpt>
      <trkpt lat="48.42416" lon="7.40069">
        <ele>737</ele>
        <time>2015-07-12T14:17:02Z</time>
      </trkpt>
      <trkpt lat="48.42423" lon="7.40054">
        <ele>737</ele>
        <time>2015-07-12T14:17:10Z</time>
      </trkpt>
      <trkpt lat="48.42433" lon="7.4004">
        <ele>735</ele>
        <time>2015-07-12T14:17:20Z</time>
      </trkpt>
      <trkpt lat="48.4245" lon="7.40028">
        <ele>734</ele>
        <time>2015-07-12T14:17:33Z</time>
      </trkpt>
      <trkpt lat="48.42467" lon="7.40008">
        <ele>737</ele>
        <time>2015-07-12T14:17:48Z</time>
      </trkpt>
      <trkpt lat="48.42479" lon="7.39997">
        <ele>736</ele>
        <time>2015-07-12T14:17:58Z</time>
      </trkpt>
      <trkpt lat="48.42498" lon="7.39965">
        <ele>737</ele>
        <time>2015-07-12T14:18:17Z</time>
      </trkpt>
      <trkpt lat="48.42508" lon="7.39955">
        <ele>735</ele>
        <time>2015-07-12T14:18:26Z</time>
      </trkpt>
      <trkpt lat="48.42526" lon="7.39945">
        <ele>739</ele>
        <time>2015-07-12T14:18:37Z</time>
      </trkpt>
      <trkpt lat="48.42548" lon="7.39933">
        <ele>749</ele>
        <time>2015-07-12T14:18:56Z</time>
      </trkpt>
      <trkpt lat="48.42566" lon="7.39941">
        <ele>753</ele>
        <time>2015-07-12T14:19:09Z</time>
      </trkpt>
      <trkpt lat="48.42575" lon="7.39946">
        <ele>756</ele>
        <time>2015-07-12T14:19:17Z</time>
      </trkpt>
      <trkpt lat="48.426" lon="7.39975">
        <ele>748</ele>
        <time>2015-07-12T14:19:35Z</time>
      </trkpt>
      <trkpt lat="48.42613" lon="7.40002">
        <ele>746</ele>
        <time>2015-07-12T14:19:47Z</time>
      </trkpt>
      <trkpt lat="48.42616" lon="7.40005">
        <ele>746</ele>
        <time>2015-07-12T14:19:49Z</time>
      </trkpt>
      <trkpt lat="48.42637" lon="7.40031">
        <ele>753</ele>
        <time>2015-07-12T14:20:12Z</time>
      </trkpt>
      <trkpt lat="48.42638" lon="7.40034">
        <ele>755</ele>
        <time>2015-07-12T14:20:14Z</time>
      </trkpt>
      <trkpt lat="48.42655" lon="7.4005">
        <ele>762</ele>
        <time>2015-07-12T14:20:29Z</time>
      </trkpt>
      <trkpt lat="48.42663" lon="7.40061">
        <ele>760</ele>
        <time>2015-07-12T14:20:38Z</time>
      </trkpt>
      <trkpt lat="48.42671" lon="7.40076">
        <ele>761</ele>
        <time>2015-07-12T14:20:48Z</time>
      </trkpt>
      <trkpt lat="48.42683" lon="7.4009">
        <ele>763</ele>
        <time>2015-07-12T14:21:00Z</time>
      </trkpt>
      <trkpt lat="48.42703" lon="7.40103">
        <ele>762</ele>
        <time>2015-07-12T14:21:15Z</time>
      </trkpt>
      <trkpt lat="48.42718" lon="7.40112">
        <ele>764</ele>
        <time>2015-07-12T14:21:29Z</time>
      </trkpt>
      <trkpt lat="48.42729" lon="7.40117">
        <ele>764</ele>
        <time>2015-07-12T14:21:38Z</time>
      </trkpt>
      <trkpt lat="48.42749" lon="7.40121">
        <ele>765</ele>
        <time>2015-07-12T14:21:53Z</time>
      </trkpt>
      <trkpt lat="48.42759" lon="7.40113">
        <ele>767</ele>
        <time>2015-07-12T14:22:01Z</time>
      </trkpt>
      <trkpt lat="48.42772" lon="7.40108">
        <ele>766</ele>
        <time>2015-07-12T14:22:12Z</time>
      </trkpt>
      <trkpt lat="48.42785" lon="7.40111">
        <ele>764</ele>
        <time>2015-07-12T14:22:24Z</time>
      </trkpt>
      <trkpt lat="48.42795" lon="7.40093">
        <ele>767</ele>
        <time>2015-07-12T14:22:39Z</time>
      </trkpt>
      <trkpt lat="48.42803" lon="7.40073">
        <ele>769</ele>
        <time>2015-07-12T14:22:54Z</time>
      </trkpt>
      <trkpt lat="48.42819" lon="7.40056">
        <ele>767</ele>
        <time>2015-07-12T14:23:07Z</time>
      </trkpt>
      <trkpt lat="48.42826" lon="7.4005">
        <ele>766</ele>
        <time>2015-07-12T14:23:13Z</time>
      </trkpt>
      <trkpt lat="48.42839" lon="7.40038">
        <ele>766</ele>
        <time>2015-07-12T14:23:24Z</time>
      </trkpt>
      <trkpt lat="48.42864" lon="7.40015">
        <ele>762</ele>
        <time>2015-07-12T14:23:41Z</time>
      </trkpt>
      <trkpt lat="48.42873" lon="7.40008">
        <ele>761</ele>
        <time>2015-07-12T14:23:47Z</time>
      </trkpt>
      <trkpt lat="48.42891" lon="7.39992">
        <ele>766</ele>
        <time>2015-07-12T14:24:01Z</time>
      </trkpt>
      <trkpt lat="48.42921" lon="7.39978">
        <ele>769</ele>
        <time>2015-07-12T14:24:20Z</time>
      </trkpt>
      <trkpt lat="48.42932" lon="7.39979">
        <ele>769</ele>
        <time>2015-07-12T14:24:27Z</time>
      </trkpt>
      <trkpt lat="48.42958" lon="7.39977">
        <ele>770</ele>
        <time>2015-07-12T14:24:44Z</time>
      </trkpt>
      <trkpt lat="48.42969" lon="7.39982">
        <ele>771</ele>
        <time>2015-07-12T14:24:51Z</time>
      </trkpt>
      <trkpt lat="48.42991" lon="7.40004">
        <ele>769</ele>
        <time>2015-07-12T14:25:07Z</time>
      </trkpt>
      <trkpt lat="48.42998" lon="7.40011">
        <ele>769</ele>
        <time>2015-07-12T14:25:13Z</time>
      </trkpt>
      <trkpt lat="48.43013" lon="7.40027">
        <ele>769</ele>
        <time>2015-07-12T14:25:25Z</time>
      </trkpt>
      <trkpt lat="48.43027" lon="7.4004">
        <ele>769</ele>
        <time>2015-07-12T14:25:36Z</time>
      </trkpt>
      <trkpt lat="48.43044" lon="7.40055">
        <ele>770</ele>
        <time>2015-07-12T14:25:52Z</time>
      </trkpt>
      <trkpt lat="48.43045" lon="7.40056">
        <ele>770</ele>
        <time>2015-07-12T14:25:58Z</time>
      </trkpt>
      <trkpt lat="48.43064" lon="7.40071">
        <ele>776</ele>
        <time>2015-07-12T14:26:10Z</time>
      </trkpt>
      <trkpt lat="48.4308" lon="7.4009">
        <ele>775</ele>
        <time>2015-07-12T14:26:21Z</time>
      </trkpt>
      <trkpt lat="48.43094" lon="7.40103">
        <ele>776</ele>
        <time>2015-07-12T14:26:32Z</time>
      </trkpt>
      <trkpt lat="48.43105" lon="7.40114">
        <ele>774</ele>
        <time>2015-07-12T14:26:43Z</time>
      </trkpt>
      <trkpt lat="48.43124" lon="7.40119">
        <ele>770</ele>
        <time>2015-07-12T14:26:54Z</time>
      </trkpt>
      <trkpt lat="48.43147" lon="7.40121">
        <ele>773</ele>
        <time>2015-07-12T14:27:10Z</time>
      </trkpt>
      <trkpt lat="48.43168" lon="7.40125">
        <ele>771</ele>
        <time>2015-07-12T14:27:24Z</time>
      </trkpt>
      <trkpt lat="48.43174" lon="7.40125">
        <ele>770</ele>
        <time>2015-07-12T14:27:28Z</time>
      </trkpt>
      <trkpt lat="48.43189" lon="7.40125">
        <ele>771</ele>
        <time>2015-07-12T14:27:39Z</time>
      </trkpt>
      <trkpt lat="48.43219" lon="7.40128">
        <ele>773</ele>
        <time>2015-07-12T14:28:00Z</time>
      </trkpt>
      <trkpt lat="48.43232" lon="7.40143">
        <ele>768</ele>
        <time>2015-07-12T14:28:13Z</time>
      </trkpt>
      <trkpt lat="48.43232" lon="7.40144">
        <ele>768</ele>
        <time>2015-07-12T14:28:16Z</time>
      </trkpt>
      <trkpt lat="48.43255" lon="7.40166">
        <ele>771</ele>
        <time>2015-07-12T14:28:32Z</time>
      </trkpt>
      <trkpt lat="48.43285" lon="7.40185">
        <ele>769</ele>
        <time>2015-07-12T14:28:48Z</time>
      </trkpt>
      <trkpt lat="48.43294" lon="7.40187">
        <ele>768</ele>
        <time>2015-07-12T14:28:53Z</time>
      </trkpt>
      <trkpt lat="48.43312" lon="7.4019">
        <ele>770</ele>
        <time>2015-07-12T14:29:08Z</time>
      </trkpt>
      <trkpt lat="48.43323" lon="7.40194">
        <ele>768</ele>
        <time>2015-07-12T14:29:16Z</time>
      </trkpt>
      <trkpt lat="48.43339" lon="7.40188">
        <ele>770</ele>
        <time>2015-07-12T14:29:29Z</time>
      </trkpt>
      <trkpt lat="48.43363" lon="7.40187">
        <ele>772</ele>
        <time>2015-07-12T14:29:48Z</time>
      </trkpt>
      <trkpt lat="48.4337" lon="7.40187">
        <ele>772</ele>
        <time>2015-07-12T14:29:52Z</time>
      </trkpt>
      <trkpt lat="48.43395" lon="7.40188">
        <ele>768</ele>
        <time>2015-07-12T14:30:11Z</time>
      </trkpt>
      <trkpt lat="48.43402" lon="7.40187">
        <ele>765</ele>
        <time>2015-07-12T14:30:20Z</time>
      </trkpt>
      <trkpt lat="48.43419" lon="7.40197">
        <ele>765</ele>
        <time>2015-07-12T14:30:42Z</time>
      </trkpt>
      <trkpt lat="48.4342" lon="7.40197">
        <ele>765</ele>
        <time>2015-07-12T14:30:44Z</time>
      </trkpt>
      <trkpt lat="48.43443" lon="7.40206">
        <ele>771</ele>
        <time>2015-07-12T14:31:02Z</time>
      </trkpt>
      <trkpt lat="48.43454" lon="7.40209">
        <ele>774</ele>
        <time>2015-07-12T14:31:10Z</time>
      </trkpt>
      <trkpt lat="48.43471" lon="7.40222">
        <ele>761</ele>
        <time>2015-07-12T14:31:22Z</time>
      </trkpt>
      <trkpt lat="48.43497" lon="7.40242">
        <ele>760</ele>
        <time>2015-07-12T14:31:44Z</time>
      </trkpt>
      <trkpt lat="48.43498" lon="7.40247">
        <ele>758</ele>
        <time>2015-07-12T14:31:46Z</time>
      </trkpt>
    </trkseg>
  </trk>
</gpx>